createdAt,value
2019-03-27T00:01:29.826Z,24.32
2019-03-27T00:03:58.338Z,27.93
2019-03-27T00:06:26.766Z,24.72
2019-03-27T00:08:55.227Z,29.20
2019-03-27T00:11:23.664Z,33.92
2019-03-27T00:13:52.094Z,28.38
2019-03-27T00:16:20.603Z,27.58
2019-03-27T00:18:49.036Z,36.38
2019-03-27T00:21:17.518Z,39.78
2019-03-27T00:23:45.927Z,25.55
2019-03-27T00:26:14.373Z,32.78
2019-03-27T00:28:42.795Z,39.33
2019-03-27T00:31:11.988Z,37.67
2019-03-27T00:33:40.570Z,38.17
2019-03-27T00:36:09.012Z,42.38
2019-03-27T00:38:37.435Z,38.23
2019-03-27T00:41:05.894Z,46.48
2019-03-27T00:43:34.477Z,38.85
2019-03-27T00:46:04.473Z,40.52
2019-03-27T00:48:32.943Z,45.58
2019-03-27T00:51:01.387Z,39.92
2019-03-27T00:53:29.804Z,37.98
2019-03-27T00:55:58.248Z,43.63
2019-03-27T00:58:26.686Z,48.13
2019-03-27T01:01:00.731Z,34.58
2019-03-27T01:03:29.159Z,47.80
2019-03-27T01:05:57.631Z,49.27
2019-03-27T01:08:26.106Z,54.58
2019-03-27T01:10:54.528Z,42.55
2019-03-27T01:13:22.969Z,46.77
2019-03-27T01:15:51.462Z,48.02
2019-03-27T01:18:19.914Z,55.28
2019-03-27T01:20:48.349Z,45.08
2019-03-27T01:23:16.780Z,43.50
2019-03-27T01:25:45.275Z,42.67
2019-03-27T01:28:13.718Z,34.95
2019-03-27T01:30:42.145Z,43.38
2019-03-27T01:33:10.588Z,46.02
2019-03-27T01:35:39.019Z,46.48
2019-03-27T01:38:07.458Z,37.50
2019-03-27T01:40:36.011Z,42.95
2019-03-27T01:43:04.450Z,50.80
2019-03-27T01:45:32.871Z,42.25
2019-03-27T01:48:01.318Z,42.83
2019-03-27T01:50:29.732Z,43.63
2019-03-27T01:52:58.178Z,46.02
2019-03-27T01:55:26.596Z,42.85
2019-03-27T01:57:55.050Z,36.70
2019-03-27T02:00:23.511Z,50.38
2019-03-27T02:02:51.980Z,45.60
2019-03-27T02:05:20.402Z,47.48
2019-03-27T02:07:48.851Z,47.43
2019-03-27T02:10:17.998Z,45.95
2019-03-27T02:12:46.441Z,53.75
2019-03-27T02:15:16.518Z,45.40
2019-03-27T02:17:45.016Z,44.18
2019-03-27T02:20:13.688Z,57.73
2019-03-27T02:22:42.116Z,45.88
2019-03-27T02:25:10.816Z,53.78
2019-03-27T02:27:39.262Z,43.05
2019-03-27T02:30:08.151Z,44.50
2019-03-27T02:32:38.133Z,41.15
2019-03-27T02:35:06.817Z,49.58
2019-03-27T02:37:35.227Z,48.85
2019-03-27T02:40:04.823Z,42.90
2019-03-27T02:42:33.250Z,45.70
2019-03-27T02:45:01.817Z,39.42
2019-03-27T02:47:30.363Z,45.92
2019-03-27T02:49:58.831Z,49.00
2019-03-27T02:52:27.239Z,47.23
2019-03-27T02:54:55.695Z,49.05
2019-03-27T02:57:24.191Z,47.45
2019-03-27T02:59:52.642Z,40.75
2019-03-27T03:02:21.211Z,59.23
2019-03-27T03:04:49.672Z,51.08
2019-03-27T03:07:18.145Z,43.00
2019-03-27T03:09:46.659Z,46.73
2019-03-27T03:12:15.115Z,44.23
2019-03-27T03:14:43.546Z,49.85
2019-03-27T03:17:11.996Z,57.80
2019-03-27T03:19:40.456Z,46.77
2019-03-27T03:22:08.889Z,52.55
2019-03-27T03:24:37.301Z,47.53
2019-03-27T03:27:05.759Z,46.18
2019-03-27T03:29:34.188Z,44.25
2019-03-27T03:32:02.637Z,44.93
2019-03-27T03:34:31.148Z,49.50
2019-03-27T03:36:59.755Z,45.67
2019-03-27T03:39:28.326Z,46.60
2019-03-27T03:41:56.770Z,56.42
2019-03-27T03:44:25.183Z,47.75
2019-03-27T03:47:00.236Z,41.77
2019-03-27T03:49:23.784Z,47.65
2019-03-27T03:51:52.486Z,41.53
2019-03-27T03:54:21.145Z,40.10
2019-03-27T03:56:52.639Z,46.08
2019-03-27T03:59:23.797Z,48.00
2019-03-27T04:01:54.256Z,52.17
2019-03-27T04:04:23.298Z,45.38
2019-03-27T04:06:51.832Z,53.90
2019-03-27T04:09:20.251Z,59.38
2019-03-27T04:11:48.722Z,52.93
2019-03-27T04:14:17.129Z,49.88
2019-03-27T04:16:45.562Z,56.83
2019-03-27T04:19:13.997Z,49.70
2019-03-27T04:21:42.420Z,48.20
2019-03-27T04:24:10.955Z,51.30
2019-03-27T04:26:39.383Z,48.42
2019-03-27T04:29:07.899Z,61.40
2019-03-27T04:31:36.391Z,57.58
2019-03-27T04:34:04.927Z,58.45
2019-03-27T04:36:33.526Z,47.33
2019-03-27T04:39:02.058Z,58.25
2019-03-27T04:41:30.474Z,50.83
2019-03-27T04:43:58.930Z,43.30
2019-03-27T04:46:27.334Z,71.85
2019-03-27T04:48:55.775Z,49.05
2019-03-27T04:51:24.199Z,49.08
2019-03-27T04:53:52.649Z,47.93
2019-03-27T04:56:21.142Z,51.80
2019-03-27T04:58:49.586Z,46.05
2019-03-27T05:01:18.030Z,45.88
2019-03-27T05:03:46.535Z,64.92
2019-03-27T05:06:14.961Z,51.70
2019-03-27T05:08:43.468Z,52.65
2019-03-27T05:11:11.893Z,49.03
2019-03-27T05:13:40.359Z,46.13
2019-03-27T05:16:08.863Z,50.55
2019-03-27T05:18:37.294Z,52.45
2019-03-27T05:21:05.734Z,48.95
2019-03-27T05:23:34.202Z,41.15
2019-03-27T05:26:02.638Z,42.78
2019-03-27T05:28:31.103Z,53.28
2019-03-27T05:30:59.558Z,44.20
2019-03-27T05:33:28.062Z,41.25
2019-03-27T05:35:56.505Z,58.17
2019-03-27T05:38:24.926Z,49.77
2019-03-27T05:40:53.369Z,61.88
2019-03-27T05:43:21.791Z,49.75
2019-03-27T05:45:50.235Z,53.78
2019-03-27T05:48:18.699Z,48.83
2019-03-27T05:50:47.210Z,59.45
2019-03-27T05:53:15.642Z,44.55
2019-03-27T05:55:44.752Z,49.73
2019-03-27T05:58:13.178Z,51.02
2019-03-27T06:00:41.622Z,50.55
2019-03-27T06:03:10.039Z,55.40
2019-03-27T06:05:38.450Z,52.60
2019-03-27T06:08:06.906Z,46.25
2019-03-27T06:10:35.378Z,49.15
2019-03-27T06:13:03.798Z,51.73
2019-03-27T06:15:32.225Z,46.30
2019-03-27T06:18:12.530Z,42.40
2019-03-27T06:20:31.021Z,48.48
2019-03-27T06:22:59.476Z,53.83
2019-03-27T06:25:28.865Z,54.73
2019-03-27T06:27:57.312Z,54.98
2019-03-27T06:30:25.818Z,54.67
2019-03-27T06:32:54.250Z,64.97
2019-03-27T06:35:23.151Z,55.67
2019-03-27T06:37:51.694Z,61.42
2019-03-27T06:40:20.219Z,55.78
2019-03-27T06:42:48.782Z,57.80
2019-03-27T06:45:17.355Z,56.25
2019-03-27T06:47:45.801Z,50.33
2019-03-27T06:50:14.300Z,55.58
2019-03-27T06:52:42.743Z,49.23
2019-03-27T06:55:11.303Z,54.55
2019-03-27T06:57:39.747Z,54.88
2019-03-27T07:00:09.720Z,57.75
2019-03-27T07:02:38.235Z,55.40
2019-03-27T07:05:07.394Z,65.12
2019-03-27T07:07:35.845Z,56.83
2019-03-27T07:10:06.611Z,52.67
2019-03-27T07:12:35.039Z,53.28
2019-03-27T07:15:03.934Z,59.83
2019-03-27T07:17:32.346Z,52.40
2019-03-27T07:20:00.790Z,56.40
2019-03-27T07:22:29.214Z,46.95
2019-03-27T07:24:57.665Z,56.00
2019-03-27T07:27:26.085Z,52.38
2019-03-27T07:29:56.054Z,45.17
2019-03-27T07:32:24.578Z,50.55
2019-03-27T07:34:53.047Z,52.80
2019-03-27T07:37:21.480Z,50.90
2019-03-27T07:39:49.924Z,47.88
2019-03-27T07:42:18.334Z,43.38
2019-03-27T07:44:46.792Z,52.10
2019-03-27T07:47:15.211Z,49.10
2019-03-27T07:49:43.702Z,50.90
2019-03-27T07:52:12.174Z,49.77
2019-03-27T07:54:40.632Z,50.17
2019-03-27T07:57:09.050Z,51.98
2019-03-27T07:59:37.485Z,44.98
2019-03-27T08:02:05.906Z,47.00
2019-03-27T08:04:34.419Z,59.08
2019-03-27T08:07:03.007Z,45.67
2019-03-27T08:09:31.519Z,39.55
2019-03-27T08:12:00.405Z,35.85
2019-03-27T08:14:28.835Z,37.40
2019-03-27T08:16:57.295Z,42.93
2019-03-27T08:19:25.719Z,34.23
2019-03-27T08:21:54.165Z,28.75
2019-03-27T08:24:22.689Z,38.30
2019-03-27T08:26:51.139Z,29.27
2019-03-27T08:29:19.584Z,38.10
2019-03-27T08:31:48.003Z,32.00
2019-03-27T08:34:16.443Z,27.42
2019-03-27T08:36:44.967Z,22.37
2019-03-27T08:39:13.463Z,30.37
2019-03-27T08:41:41.907Z,41.90
2019-03-27T08:44:10.371Z,37.45
2019-03-27T08:46:38.882Z,22.02
2019-03-27T08:49:20.777Z,23.85
2019-03-27T08:51:37.481Z,21.68
2019-03-27T08:54:06.042Z,24.80
2019-03-27T08:56:34.511Z,22.87
2019-03-27T08:59:03.077Z,24.80
2019-03-27T09:01:31.531Z,23.67
2019-03-27T09:03:59.954Z,23.35
2019-03-27T09:06:33.826Z,21.05
2019-03-27T09:08:58.650Z,15.65
2019-03-27T09:11:27.066Z,26.10
2019-03-27T09:13:55.514Z,21.70
2019-03-27T09:16:23.939Z,19.32
2019-03-27T09:18:52.387Z,15.08
2019-03-27T09:21:20.810Z,15.43
2019-03-27T09:23:49.246Z,18.98
2019-03-27T09:26:17.667Z,17.02
2019-03-27T09:28:46.179Z,16.12
2019-03-27T09:31:14.607Z,17.35
2019-03-27T09:33:43.047Z,14.83
2019-03-27T09:36:11.533Z,19.52
2019-03-27T09:38:40.209Z,15.35
2019-03-27T09:41:10.181Z,16.12
2019-03-27T09:43:38.663Z,14.87
2019-03-27T09:46:07.173Z,19.27
2019-03-27T09:48:35.614Z,13.75
2019-03-27T09:51:04.882Z,16.10
2019-03-27T09:53:33.403Z,17.73
2019-03-27T09:56:01.823Z,14.33
2019-03-27T09:58:30.338Z,18.48
2019-03-27T10:00:59.434Z,11.00
2019-03-27T10:03:27.843Z,13.38
2019-03-27T10:05:56.367Z,13.05
2019-03-27T10:08:24.811Z,10.75
2019-03-27T10:10:53.273Z,14.43
2019-03-27T10:13:21.694Z,12.00
2019-03-27T10:15:50.153Z,13.93
2019-03-27T10:18:18.578Z,17.07
2019-03-27T10:20:47.038Z,14.20
2019-03-27T10:23:15.491Z,11.75
2019-03-27T10:25:43.998Z,13.40
2019-03-27T10:28:12.440Z,12.10
2019-03-27T10:30:40.898Z,16.95
2019-03-27T10:33:09.326Z,13.35
2019-03-27T10:35:37.796Z,14.68
2019-03-27T10:38:06.267Z,12.78
2019-03-27T10:40:34.723Z,14.20
2019-03-27T10:43:03.146Z,13.98
2019-03-27T10:45:31.625Z,15.10
2019-03-27T10:48:00.046Z,11.35
2019-03-27T10:50:28.508Z,19.57
2019-03-27T10:52:56.939Z,17.52
2019-03-27T10:55:25.550Z,12.67
2019-03-27T10:57:53.985Z,13.60
2019-03-27T11:00:22.510Z,14.53
2019-03-27T11:02:51.054Z,11.97
2019-03-27T11:05:19.547Z,10.35
2019-03-27T11:07:47.980Z,13.18
2019-03-27T11:10:16.770Z,10.68
2019-03-27T11:12:45.202Z,13.03
2019-03-27T11:15:14.056Z,12.07
2019-03-27T11:17:42.531Z,14.30
2019-03-27T11:20:11.300Z,15.03
2019-03-27T11:22:39.810Z,13.40
2019-03-27T11:25:08.883Z,9.68
2019-03-27T11:27:37.322Z,9.83
2019-03-27T11:30:06.997Z,8.75
2019-03-27T11:32:35.447Z,12.28
2019-03-27T11:35:04.426Z,8.40
2019-03-27T11:37:32.875Z,14.07
2019-03-27T11:40:01.584Z,14.25
2019-03-27T11:42:30.031Z,13.32
2019-03-27T11:44:58.466Z,11.40
2019-03-27T11:47:28.240Z,8.65
2019-03-27T11:49:56.640Z,8.70
2019-03-27T11:52:25.099Z,8.88
2019-03-27T11:54:53.528Z,15.95
2019-03-27T11:57:21.989Z,7.08
2019-03-27T11:59:54.299Z,7.53
2019-03-27T12:02:20.592Z,10.35
2019-03-27T12:04:49.091Z,11.73
2019-03-27T12:07:17.540Z,11.30
2019-03-27T12:09:45.964Z,11.50
2019-03-27T12:12:14.439Z,9.28
2019-03-27T12:14:42.868Z,9.65
2019-03-27T12:17:11.363Z,9.23
2019-03-27T12:19:39.798Z,12.20
2019-03-27T12:22:08.236Z,16.57
2019-03-27T12:24:36.733Z,10.63
2019-03-27T12:27:05.132Z,8.50
2019-03-27T12:29:33.573Z,8.37
2019-03-27T12:32:02.022Z,14.10
2019-03-27T12:34:30.446Z,9.40
2019-03-27T12:36:58.858Z,7.63
2019-03-27T12:39:27.306Z,6.90
2019-03-27T12:41:55.723Z,9.28
2019-03-27T12:44:24.171Z,12.43
2019-03-27T12:46:52.598Z,10.20
2019-03-27T12:49:21.034Z,9.93
2019-03-27T12:51:49.449Z,9.60
2019-03-27T12:54:17.992Z,10.13
2019-03-27T12:56:46.451Z,11.83
2019-03-27T12:59:14.963Z,10.60
2019-03-27T13:01:43.394Z,9.43
2019-03-27T13:04:11.847Z,7.33
2019-03-27T13:06:40.268Z,9.50
2019-03-27T13:09:08.961Z,5.93
2019-03-27T13:11:37.431Z,7.90
2019-03-27T13:14:05.975Z,11.63
2019-03-27T13:16:34.467Z,10.03
2019-03-27T13:19:02.978Z,9.30
2019-03-27T13:21:31.561Z,6.20
2019-03-27T13:23:59.987Z,8.50
2019-03-27T13:26:28.432Z,9.27
2019-03-27T13:28:56.862Z,5.50
2019-03-27T13:31:25.309Z,6.70
2019-03-27T13:33:53.722Z,9.67
2019-03-27T13:36:22.170Z,7.70
2019-03-27T13:38:50.596Z,7.77
2019-03-27T13:41:19.039Z,9.33
2019-03-27T13:43:47.479Z,7.20
2019-03-27T13:46:15.926Z,7.93
2019-03-27T13:48:44.422Z,5.87
2019-03-27T13:51:12.989Z,10.87
2019-03-27T13:53:41.445Z,6.50
2019-03-27T13:56:10.012Z,9.40
2019-03-27T13:58:38.491Z,7.00
2019-03-27T14:01:08.892Z,5.17
2019-03-27T14:03:37.112Z,6.20
2019-03-27T14:06:05.636Z,7.67
2019-03-27T14:08:34.122Z,6.77
2019-03-27T14:11:02.663Z,6.50
2019-03-27T14:13:31.147Z,8.17
2019-03-27T14:15:59.593Z,7.07
2019-03-27T14:18:28.039Z,6.10
2019-03-27T14:20:56.463Z,5.50
2019-03-27T14:23:24.907Z,7.97
2019-03-27T14:25:53.413Z,9.27
2019-03-27T14:28:22.006Z,12.07
2019-03-27T14:30:52.572Z,6.80
2019-03-27T14:33:21.551Z,6.87
2019-03-27T14:35:50.048Z,12.00
2019-03-27T14:38:18.614Z,6.63
2019-03-27T14:40:47.050Z,7.77
2019-03-27T14:43:15.507Z,6.63
2019-03-27T14:45:43.991Z,7.80
2019-03-27T14:48:12.433Z,6.10
2019-03-27T14:50:40.918Z,5.73
2019-03-27T14:53:09.503Z,6.03
2019-03-27T14:55:37.995Z,6.63
2019-03-27T14:58:06.454Z,9.33
2019-03-27T15:00:34.892Z,8.10
2019-03-27T15:03:04.511Z,8.00
2019-03-27T15:05:32.987Z,7.10
2019-03-27T15:08:04.036Z,7.33
2019-03-27T15:10:31.675Z,5.43
2019-03-27T15:13:00.215Z,5.47
2019-03-27T15:15:28.663Z,5.63
2019-03-27T15:17:57.082Z,7.93
2019-03-27T15:20:25.527Z,9.10
2019-03-27T15:22:54.058Z,9.03
2019-03-27T15:25:22.543Z,6.33
2019-03-27T15:27:50.969Z,7.80
2019-03-27T15:30:19.846Z,8.03
2019-03-27T15:32:48.335Z,6.10
2019-03-27T15:35:16.783Z,7.50
2019-03-27T15:37:45.220Z,6.90
2019-03-27T15:40:14.212Z,6.63
2019-03-27T15:42:42.782Z,11.13
2019-03-27T15:45:11.657Z,5.73
2019-03-27T15:47:40.110Z,7.03
2019-03-27T15:50:08.879Z,9.00
2019-03-27T15:52:37.488Z,4.77
2019-03-27T15:55:06.958Z,7.43
2019-03-27T15:57:35.437Z,6.83
2019-03-27T16:00:06.758Z,7.27
2019-03-27T16:02:35.243Z,8.33
2019-03-27T16:05:05.228Z,7.20
2019-03-27T16:07:33.671Z,7.90
2019-03-27T16:10:02.087Z,8.37
2019-03-27T16:12:30.544Z,5.93
2019-03-27T16:14:58.962Z,4.93
2019-03-27T16:17:27.401Z,10.50
2019-03-27T16:19:55.824Z,5.10
2019-03-27T16:22:24.267Z,6.30
2019-03-27T16:24:52.706Z,3.90
2019-03-27T16:27:21.270Z,4.13
2019-03-27T16:29:51.489Z,6.10
2019-03-27T16:32:19.910Z,5.27
2019-03-27T16:34:48.354Z,4.87
2019-03-27T16:37:16.792Z,6.03
2019-03-27T16:39:45.235Z,6.67
2019-03-27T16:42:13.751Z,6.00
2019-03-27T16:44:42.222Z,5.90
2019-03-27T16:47:10.820Z,6.80
2019-03-27T16:49:39.342Z,7.83
2019-03-27T16:52:07.784Z,4.57
2019-03-27T16:54:36.233Z,8.53
2019-03-27T16:57:04.694Z,7.13
2019-03-27T16:59:33.139Z,8.47
2019-03-27T17:02:01.631Z,6.72
2019-03-27T17:04:30.075Z,8.03
2019-03-27T17:06:58.508Z,6.13
2019-03-27T17:09:26.955Z,7.60
2019-03-27T17:11:55.384Z,5.30
2019-03-27T17:14:23.849Z,7.70
2019-03-27T17:16:52.266Z,6.20
2019-03-27T17:19:20.746Z,5.78
2019-03-27T17:21:49.263Z,9.45
2019-03-27T17:24:17.745Z,5.62
2019-03-27T17:26:46.229Z,7.87
2019-03-27T17:29:14.708Z,5.20
2019-03-27T17:31:43.237Z,8.30
2019-03-27T17:34:11.693Z,6.37
2019-03-27T17:36:40.188Z,8.25
2019-03-27T17:39:09.084Z,7.65
2019-03-27T17:41:37.962Z,6.40
2019-03-27T17:44:06.510Z,6.28
2019-03-27T17:46:34.926Z,4.78
2019-03-27T17:49:03.411Z,5.95
2019-03-27T17:51:31.843Z,8.95
2019-03-27T17:54:00.266Z,6.50
2019-03-27T17:56:28.707Z,6.83
2019-03-27T17:58:57.122Z,4.67
2019-03-27T18:01:25.576Z,6.90
2019-03-27T18:03:54.073Z,5.47
2019-03-27T18:06:22.542Z,6.37
2019-03-27T18:08:50.973Z,7.40
2019-03-27T18:11:19.523Z,11.65
2019-03-27T18:13:48.016Z,6.20
2019-03-27T18:16:17.259Z,6.85
2019-03-27T18:18:45.897Z,6.25
2019-03-27T18:21:14.371Z,8.80
2019-03-27T18:23:46.451Z,7.58
2019-03-27T18:26:13.042Z,9.73
2019-03-27T18:28:41.527Z,8.53
2019-03-27T18:31:10.059Z,9.23
2019-03-27T18:33:38.563Z,7.95
2019-03-27T18:36:07.075Z,4.95
2019-03-27T18:38:35.546Z,10.18
2019-03-27T18:41:04.161Z,7.20
2019-03-27T18:43:32.617Z,6.08
2019-03-27T18:46:01.181Z,5.17
2019-03-27T18:48:29.633Z,7.30
2019-03-27T18:50:58.063Z,10.80
2019-03-27T18:53:26.594Z,6.25
2019-03-27T18:55:55.143Z,10.18
2019-03-27T18:58:23.596Z,11.97
2019-03-27T19:00:52.025Z,7.75
2019-03-27T19:03:20.497Z,7.83
2019-03-27T19:05:48.898Z,7.75
2019-03-27T19:08:17.360Z,6.78
2019-03-27T19:10:45.780Z,10.93
2019-03-27T19:13:14.244Z,9.43
2019-03-27T19:15:42.644Z,8.35
2019-03-27T19:18:11.084Z,10.13
2019-03-27T19:20:39.508Z,6.25
2019-03-27T19:23:07.964Z,10.78
2019-03-27T19:25:36.422Z,9.48
2019-03-27T19:28:04.895Z,11.95
2019-03-27T19:30:33.415Z,7.97
2019-03-27T19:33:01.910Z,15.72
2019-03-27T19:35:30.395Z,10.25
2019-03-27T19:37:58.864Z,8.55
2019-03-27T19:40:27.340Z,7.33
2019-03-27T19:42:55.754Z,11.83
2019-03-27T19:45:24.305Z,14.53
2019-03-27T19:47:52.740Z,10.88
2019-03-27T19:50:21.312Z,14.68
2019-03-27T19:52:49.767Z,11.03
2019-03-27T19:55:18.195Z,4.87
2019-03-27T19:57:46.692Z,8.68
2019-03-27T20:00:15.695Z,9.65
2019-03-27T20:02:45.248Z,5.65
2019-03-27T20:05:13.974Z,10.70
2019-03-27T20:07:42.471Z,5.85
2019-03-27T20:10:11.195Z,5.00
2019-03-27T20:12:39.631Z,11.10
2019-03-27T20:15:12.242Z,6.92
2019-03-27T20:17:38.747Z,5.55
2019-03-27T20:20:09.300Z,7.78
2019-03-27T20:22:37.860Z,5.95
2019-03-27T20:25:10.414Z,7.33
2019-03-27T20:27:38.855Z,9.28
2019-03-27T20:30:13.140Z,8.08
2019-03-27T20:32:41.943Z,7.62
2019-03-27T20:35:10.488Z,8.00
2019-03-27T20:37:38.923Z,9.10
2019-03-27T20:40:07.976Z,8.63
2019-03-27T20:42:36.535Z,14.93
2019-03-27T20:45:06.857Z,10.78
2019-03-27T20:47:35.297Z,9.13
2019-03-27T20:50:05.047Z,11.88
2019-03-27T20:52:33.501Z,7.05
2019-03-27T20:55:01.917Z,8.05
2019-03-27T20:57:30.357Z,8.68
2019-03-27T20:59:58.781Z,12.30
2019-03-27T21:02:27.253Z,8.95
2019-03-27T21:04:55.750Z,11.40
2019-03-27T21:07:24.695Z,14.98
2019-03-27T21:09:53.838Z,8.18
2019-03-27T21:12:22.300Z,7.78
2019-03-27T21:14:50.817Z,16.65
2019-03-27T21:17:19.258Z,13.35
2019-03-27T21:19:48.052Z,19.30
2019-03-27T21:22:16.546Z,16.15
2019-03-27T21:24:44.975Z,11.30
2019-03-27T21:27:16.659Z,8.35
2019-03-27T21:29:43.556Z,10.65
2019-03-27T21:32:12.004Z,7.87
2019-03-27T21:34:40.793Z,6.90
2019-03-27T21:37:09.237Z,7.80
2019-03-27T21:39:37.774Z,9.28
2019-03-27T21:42:06.201Z,7.05
2019-03-27T21:44:34.668Z,14.50
2019-03-27T21:47:03.206Z,10.75
2019-03-27T21:49:31.646Z,8.38
2019-03-27T21:52:00.095Z,8.70
2019-03-27T21:54:28.539Z,8.55
2019-03-27T21:56:56.972Z,9.83
2019-03-27T21:59:25.446Z,9.13
2019-03-27T22:01:54.122Z,9.38
2019-03-27T22:04:22.588Z,15.70
2019-03-27T22:06:51.018Z,10.72
2019-03-27T22:09:19.533Z,9.58
2019-03-27T22:11:48.020Z,9.33
2019-03-27T22:14:16.469Z,11.50
2019-03-27T22:16:44.885Z,15.08
2019-03-27T22:19:13.319Z,16.50
2019-03-27T22:21:41.735Z,11.28
2019-03-27T22:24:10.196Z,10.00
2019-03-27T22:26:38.633Z,11.78
2019-03-27T22:29:07.207Z,12.58
2019-03-27T22:31:35.643Z,16.62
2019-03-27T22:34:04.090Z,18.15
2019-03-27T22:36:32.500Z,13.32
2019-03-27T22:39:00.947Z,14.10
2019-03-27T22:41:29.381Z,14.05
2019-03-27T22:43:57.810Z,11.85
2019-03-27T22:46:26.250Z,10.05
2019-03-27T22:48:54.687Z,10.40
2019-03-27T22:51:23.184Z,11.03
2019-03-27T22:53:51.718Z,11.65
2019-03-27T22:56:20.154Z,7.50
2019-03-27T22:58:48.579Z,20.12
2019-03-27T23:01:17.187Z,8.88
2019-03-27T23:03:45.607Z,11.00
2019-03-27T23:06:14.059Z,9.50
2019-03-27T23:08:42.548Z,12.88
2019-03-27T23:11:11.090Z,8.70
2019-03-27T23:13:39.519Z,9.60
2019-03-27T23:16:07.959Z,22.40
2019-03-27T23:18:36.405Z,24.35
2019-03-27T23:21:04.986Z,9.98
2019-03-27T23:23:33.400Z,9.95
2019-03-27T23:26:03.263Z,13.22
2019-03-27T23:28:31.999Z,5.50
2019-03-27T23:31:00.434Z,14.95
2019-03-27T23:33:28.858Z,5.95
2019-03-27T23:35:57.344Z,6.87
2019-03-27T23:38:25.788Z,11.43
2019-03-27T23:40:54.215Z,6.40
2019-03-27T23:43:22.644Z,9.13
2019-03-27T23:45:51.061Z,7.35
2019-03-27T23:48:19.494Z,11.93
2019-03-27T23:50:47.931Z,8.93
2019-03-27T23:53:16.362Z,8.38
2019-03-27T23:55:44.801Z,6.20
2019-03-27T23:58:13.244Z,10.60
